Time;durP1;ratioP1;P1;durP2;ratioP2;P2;SDS_P1;SDS_P2;PMS_P1;PMS_P2;Temp;Humidity;BMP_temperature;BMP_pressure;BME280_temperature;BME280_humidity;BME280_pressure;Samples;Min_cycle;Max_cycle;Signal;HPM_P1;HPM_P2
2020/12/25 00:01:26;;;;;;;0.67;0.67;;;1.80;99.90;;;;;;5037848;28;20202;-76
2020/12/25 00:03:51;;;;;;;0.60;0.60;;;1.80;99.90;;;;;;5040459;28;20199;-76
2020/12/25 00:06:17;;;;;;;0.60;0.60;;;1.80;99.90;;;;;;5029387;28;20459;-76
2020/12/25 00:08:43;;;;;;;0.80;0.80;;;1.80;99.90;;;;;;5032911;28;20177;-76
2020/12/25 00:11:08;;;;;;;0.90;0.73;;;1.80;99.90;;;;;;5035407;28;20178;-77
2020/12/25 00:13:34;;;;;;;0.70;0.70;;;1.80;99.90;;;;;;5041556;28;20673;-76
2020/12/25 00:16:00;;;;;;;0.60;0.60;;;1.80;99.90;;;;;;5038567;28;20194;-77
2020/12/25 00:18:26;;;;;;;1.00;0.90;;;1.80;99.90;;;;;;5041316;28;20175;-76
2020/12/25 00:20:52;;;;;;;0.70;0.70;;;1.80;99.90;;;;;;5038763;28;20439;-77
2020/12/25 00:23:18;;;;;;;0.73;0.70;;;1.80;99.90;;;;;;5041257;28;20285;-77
2020/12/25 00:25:43;;;;;;;0.70;0.70;;;1.90;99.90;;;;;;5037275;28;20526;-78
2020/12/25 00:28:09;;;;;;;0.87;0.87;;;1.90;99.90;;;;;;5039469;28;20178;-76
2020/12/25 00:30:34;;;;;;;0.70;0.70;;;1.80;99.90;;;;;;5038812;28;20180;-77
2020/12/25 00:33:00;;;;;;;0.80;0.80;;;1.80;99.90;;;;;;5040797;28;20273;-77
2020/12/25 00:35:25;;;;;;;1.27;1.17;;;1.80;99.90;;;;;;5039429;28;20223;-77
2020/12/25 00:37:51;;;;;;;1.07;1.07;;;1.80;99.90;;;;;;5039555;28;20189;-77
2020/12/25 00:40:17;;;;;;;0.80;0.80;;;1.80;99.90;;;;;;5038683;28;20178;-77
2020/12/25 00:42:42;;;;;;;0.90;0.90;;;1.80;99.90;;;;;;5038377;28;20694;-77
2020/12/25 00:45:08;;;;;;;1.20;1.20;;;1.90;99.90;;;;;;5037859;28;20252;-77
2020/12/25 00:47:34;;;;;;;0.90;0.90;;;1.80;99.90;;;;;;5039769;28;20569;-77
2020/12/25 00:49:59;;;;;;;1.17;0.87;;;1.90;99.90;;;;;;5040525;28;20179;-77
2020/12/25 00:52:25;;;;;;;0.83;0.83;;;1.80;99.90;;;;;;5040801;28;20208;-76
2020/12/25 00:54:50;;;;;;;0.90;0.90;;;1.80;99.90;;;;;;5037276;28;20221;-77
2020/12/25 00:57:17;;;;;;;1.30;1.20;;;1.90;99.90;;;;;;5039173;28;20180;-77
2020/12/25 00:59:42;;;;;;;0.90;0.90;;;1.90;99.90;;;;;;5036463;28;20441;-77
2020/12/25 01:02:08;;;;;;;0.97;0.97;;;2.00;99.90;;;;;;5038618;28;20441;-77
2020/12/25 01:04:33;;;;;;;0.80;0.80;;;1.90;99.90;;;;;;5041531;28;20548;-77
2020/12/25 01:06:59;;;;;;;1.30;1.20;;;1.90;99.90;;;;;;5044471;28;20213;-78
2020/12/25 01:09:24;;;;;;;1.70;1.57;;;1.90;99.90;;;;;;5044493;28;20703;-78
2020/12/25 01:11:51;;;;;;;1.63;1.53;;;1.90;99.90;;;;;;5041886;28;20294;-77
2020/12/25 01:14:16;;;;;;;1.53;1.43;;;1.90;99.90;;;;;;5042827;28;20193;-77
2020/12/25 01:16:42;;;;;;;1.50;1.40;;;1.90;99.90;;;;;;5040629;28;20429;-77
2020/12/25 01:19:08;;;;;;;1.87;1.70;;;1.80;99.90;;;;;;5045815;28;20181;-77
2020/12/25 01:21:33;;;;;;;1.67;1.60;;;1.90;99.90;;;;;;5043251;28;20622;-77
2020/12/25 01:23:59;;;;;;;1.73;1.63;;;1.90;99.90;;;;;;5044137;28;20238;-76
2020/12/25 01:26:24;;;;;;;1.80;1.70;;;1.80;99.90;;;;;;5041271;28;20570;-77
2020/12/25 01:28:50;;;;;;;1.80;1.70;;;1.90;99.90;;;;;;5045223;28;20209;-77
2020/12/25 01:31:16;;;;;;;1.70;1.60;;;1.90;99.90;;;;;;5042390;28;20190;-77
2020/12/25 01:33:41;;;;;;;2.17;1.97;;;1.90;99.90;;;;;;5042051;28;20403;-76
2020/12/25 01:36:07;;;;;;;2.07;1.97;;;1.90;99.90;;;;;;5044804;28;20533;-77
2020/12/25 01:38:32;;;;;;;2.20;2.00;;;1.90;99.90;;;;;;5041946;28;20173;-77
2020/12/25 01:40:58;;;;;;;2.60;2.40;;;1.90;99.90;;;;;;5044065;28;20364;-78
2020/12/25 01:43:24;;;;;;;2.30;2.20;;;2.00;99.90;;;;;;5044575;28;20185;-77
2020/12/25 01:45:50;;;;;;;2.70;2.50;;;2.00;99.90;;;;;;5041741;28;20190;-77
2020/12/25 01:48:16;;;;;;;2.57;2.30;;;2.10;99.90;;;;;;5045214;28;20424;-76
2020/12/25 01:50:41;;;;;;;2.67;2.50;;;2.10;99.90;;;;;;5043501;28;20635;-77
2020/12/25 01:53:08;;;;;;;2.80;2.60;;;2.10;99.90;;;;;;5044382;28;20202;-77
2020/12/25 01:55:36;;;;;;;3.00;2.80;;;2.10;99.90;;;;;;5037100;28;20180;-77
2020/12/25 01:58:02;;;;;;;2.93;2.60;;;2.20;99.90;;;;;;5043096;28;20916;-77
2020/12/25 02:00:30;;;;;;;3.00;2.80;;;2.30;99.90;;;;;;5041235;28;20439;-77
2020/12/25 02:02:55;;;;;;;3.60;2.73;;;2.30;99.90;;;;;;5042320;28;20449;-77
2020/12/25 02:05:22;;;;;;;3.67;3.37;;;2.30;99.90;;;;;;5040839;28;20521;-76
2020/12/25 02:07:48;;;;;;;4.10;3.60;;;2.40;99.90;;;;;;5044661;28;20207;-77
2020/12/25 02:10:14;;;;;;;4.20;3.80;;;2.40;99.90;;;;;;5040956;28;20785;-76
2020/12/25 02:12:40;;;;;;;3.90;3.60;;;2.50;99.90;;;;;;5043652;28;20206;-77
2020/12/25 02:15:07;;;;;;;4.80;3.93;;;2.50;99.90;;;;;;5041344;28;20424;-77
2020/12/25 02:17:32;;;;;;;4.80;3.77;;;2.50;99.90;;;;;;5041767;28;20399;-77
2020/12/25 02:20:00;;;;;;;4.60;4.20;;;2.60;99.90;;;;;;5041646;28;20428;-77
2020/12/25 02:22:26;;;;;;;4.50;4.10;;;2.60;99.90;;;;;;5041766;28;20236;-77
2020/12/25 02:24:51;;;;;;;3.20;2.90;;;2.60;99.90;;;;;;5044326;28;20467;-76
2020/12/25 02:27:17;;;;;;;9.50;4.60;;;2.60;99.90;;;;;;5040583;28;20289;-77
2020/12/25 02:29:42;;;;;;;5.23;4.30;;;2.70;99.90;;;;;;5038344;28;20181;-77
2020/12/25 02:32:08;;;;;;;4.97;4.30;;;2.70;99.90;;;;;;5039389;28;20199;-77
2020/12/25 02:34:33;;;;;;;5.43;4.50;;;2.70;99.90;;;;;;5043374;28;20191;-76
2020/12/25 02:36:59;;;;;;;6.70;5.27;;;2.70;99.90;;;;;;5038470;28;20205;-77
2020/12/25 02:39:24;;;;;;;4.83;4.37;;;2.70;99.90;;;;;;5041898;28;20582;-77
2020/12/25 02:41:50;;;;;;;7.90;4.90;;;2.60;99.90;;;;;;5042536;28;20205;-77
2020/12/25 02:44:15;;;;;;;8.07;5.57;;;2.60;99.90;;;;;;5040705;28;20180;-77
2020/12/25 02:46:41;;;;;;;5.43;4.93;;;2.60;99.90;;;;;;5040521;28;20266;-77
2020/12/25 02:49:06;;;;;;;6.97;5.20;;;2.70;99.90;;;;;;5042743;28;20577;-77
2020/12/25 02:51:32;;;;;;;6.77;5.37;;;2.70;99.90;;;;;;5039902;28;20224;-77
2020/12/25 02:53:57;;;;;;;6.70;5.13;;;2.70;99.90;;;;;;5041967;28;20177;-77
2020/12/25 02:56:23;;;;;;;6.00;4.70;;;2.70;99.90;;;;;;5042067;28;20648;-77
2020/12/25 02:58:48;;;;;;;11.33;5.80;;;2.70;99.90;;;;;;5043192;28;20189;-77
2020/12/25 03:01:15;;;;;;;6.20;4.53;;;2.70;99.90;;;;;;5040373;28;20204;-77
2020/12/25 03:03:41;;;;;;;5.77;5.13;;;2.70;99.90;;;;;;5040425;28;20187;-77
2020/12/25 03:06:07;;;;;;;5.47;4.60;;;2.70;99.90;;;;;;5038107;28;20974;-77
2020/12/25 03:08:33;;;;;;;4.97;4.37;;;2.70;99.90;;;;;;5042080;28;20456;-77
2020/12/25 03:10:59;;;;;;;7.53;4.70;;;2.70;99.90;;;;;;5040472;28;20452;-77
2020/12/25 03:13:25;;;;;;;5.57;4.50;;;2.70;99.90;;;;;;5041992;28;20531;-77
2020/12/25 03:15:50;;;;;;;4.90;4.50;;;2.70;99.90;;;;;;5042749;28;20912;-76
2020/12/25 03:18:16;;;;;;;5.70;4.60;;;2.70;99.90;;;;;;5039742;28;20428;-77
2020/12/25 03:20:42;;;;;;;3.90;3.57;;;2.70;99.90;;;;;;5041495;28;20180;-77
2020/12/25 03:23:07;;;;;;;7.23;4.40;;;2.70;99.90;;;;;;5040845;28;20294;-77
2020/12/25 03:25:33;;;;;;;4.90;4.40;;;2.70;99.90;;;;;;5042363;28;20174;-77
2020/12/25 03:27:58;;;;;;;5.80;5.30;;;2.70;99.90;;;;;;5039013;28;20216;-77
2020/12/25 03:30:24;;;;;;;9.20;4.70;;;2.70;99.90;;;;;;5041703;28;20652;-77
2020/12/25 03:32:50;;;;;;;4.77;3.90;;;2.80;99.90;;;;;;5039343;28;20209;-77
2020/12/25 03:35:16;;;;;;;5.10;4.20;;;2.80;99.90;;;;;;5038558;28;20180;-77
2020/12/25 03:37:41;;;;;;;5.00;4.50;;;2.80;99.90;;;;;;5039584;28;20195;-77
2020/12/25 03:40:07;;;;;;;5.13;4.63;;;2.80;99.90;;;;;;5042324;28;20458;-77
2020/12/25 03:42:32;;;;;;;13.00;4.93;;;2.80;99.90;;;;;;5036676;28;20237;-77
2020/12/25 03:44:58;;;;;;;6.67;4.77;;;2.80;99.90;;;;;;5041267;28;20595;-77
2020/12/25 03:47:27;;;;;;;7.80;4.53;;;2.80;99.90;;;;;;5038082;28;20202;-77
2020/12/25 03:49:53;;;;;;;5.23;4.73;;;2.80;99.90;;;;;;5037564;28;20205;-77
2020/12/25 03:52:19;;;;;;;8.20;5.67;;;2.80;99.90;;;;;;5040650;28;20951;-77
2020/12/25 03:54:44;;;;;;;9.60;5.20;;;2.80;99.90;;;;;;5039493;28;20436;-77
2020/12/25 03:57:10;;;;;;;7.40;5.70;;;2.80;99.90;;;;;;5039092;28;20426;-76
2020/12/25 03:59:35;;;;;;;8.13;4.80;;;2.80;99.90;;;;;;5040011;28;20193;-77
2020/12/25 04:02:01;;;;;;;6.80;5.70;;;2.90;99.90;;;;;;5038675;28;20205;-77
2020/12/25 04:04:26;;;;;;;6.40;4.90;;;2.90;99.90;;;;;;5040548;28;20552;-77
2020/12/25 04:06:52;;;;;;;5.70;4.97;;;2.80;99.90;;;;;;5036009;28;20218;-77
2020/12/25 04:09:17;;;;;;;5.40;4.77;;;2.90;99.90;;;;;;5038338;28;20322;-77
2020/12/25 04:11:43;;;;;;;4.50;4.10;;;2.80;99.90;;;;;;5040940;28;20236;-77
2020/12/25 04:14:09;;;;;;;5.70;4.23;;;2.90;99.90;;;;;;5042091;28;20188;-77
2020/12/25 04:16:34;;;;;;;7.60;5.60;;;2.80;99.90;;;;;;5035816;28;20196;-77
2020/12/25 04:19:00;;;;;;;5.63;4.70;;;2.80;99.90;;;;;;5038039;28;20233;-77
2020/12/25 04:21:25;;;;;;;6.60;5.00;;;2.80;99.90;;;;;;5037906;28;20265;-77
2020/12/25 04:23:51;;;;;;;4.47;4.07;;;2.80;99.90;;;;;;5040817;28;20267;-77
2020/12/25 04:26:18;;;;;;;4.43;4.03;;;2.80;99.90;;;;;;5036743;28;20249;-77
2020/12/25 04:28:44;;;;;;;6.23;5.27;;;2.90;99.90;;;;;;5035176;28;20759;-77
2020/12/25 04:31:10;;;;;;;4.77;4.33;;;2.80;99.90;;;;;;5038916;28;20501;-77
2020/12/25 04:33:35;;;;;;;6.90;5.20;;;2.80;99.90;;;;;;5041293;28;20196;-77
2020/12/25 04:36:01;;;;;;;5.37;4.83;;;2.80;99.90;;;;;;5040336;28;20177;-77
2020/12/25 04:38:26;;;;;;;5.37;4.87;;;2.80;99.90;;;;;;5037513;28;20241;-77
2020/12/25 04:40:52;;;;;;;4.97;4.47;;;2.80;99.90;;;;;;5045660;28;20192;-78
2020/12/25 04:43:18;;;;;;;5.93;5.33;;;2.80;99.90;;;;;;5042290;28;20189;-77
2020/12/25 04:45:43;;;;;;;6.13;4.70;;;2.80;99.90;;;;;;5042306;28;20225;-77
2020/12/25 04:48:09;;;;;;;6.70;4.77;;;2.90;99.90;;;;;;5043962;28;20431;-77
2020/12/25 04:50:36;;;;;;;6.70;5.80;;;2.80;99.90;;;;;;5044128;28;20546;-77
2020/12/25 04:53:01;;;;;;;5.80;5.30;;;2.80;99.90;;;;;;5039784;28;20476;-77
2020/12/25 04:55:27;;;;;;;9.53;4.57;;;2.90;99.90;;;;;;5042893;28;20989;-78
2020/12/25 04:57:54;;;;;;;5.20;4.70;;;2.90;99.90;;;;;;5041597;28;20187;-77
2020/12/25 05:00:21;;;;;;;6.33;4.87;;;2.90;99.90;;;;;;5045861;28;20181;-77
2020/12/25 05:02:48;;;;;;;7.13;4.63;;;2.80;99.90;;;;;;5043363;28;20473;-77
2020/12/25 05:05:29;;;;;;;9.40;5.50;;;2.80;99.90;;;;;;5038781;28;20424;-77
2020/12/25 05:07:56;;;;;;;6.10;5.23;;;2.80;99.90;;;;;;5035240;28;20996;-77
2020/12/25 05:10:21;;;;;;;9.00;5.00;;;2.80;99.90;;;;;;5041616;28;20486;-77
2020/12/25 05:12:48;;;;;;;5.43;4.93;;;2.80;99.90;;;;;;5041570;28;20435;-77
2020/12/25 05:15:14;;;;;;;5.27;4.77;;;2.80;99.90;;;;;;5038534;28;20644;-77
2020/12/25 05:17:41;;;;;;;6.07;5.23;;;2.70;99.90;;;;;;5040958;28;20945;-77
2020/12/25 05:20:07;;;;;;;7.03;5.30;;;2.70;99.90;;;;;;5044869;28;20803;-78
2020/12/25 05:22:33;;;;;;;5.07;4.57;;;2.70;99.90;;;;;;5043019;28;20447;-78
2020/12/25 05:25:07;;;;;;;5.60;4.83;;;2.70;99.90;;;;;;5043825;28;20428;-77
2020/12/25 05:27:33;;;;;;;6.73;6.10;;;2.70;99.90;;;;;;5040885;28;20627;-76
2020/12/25 05:30:00;;;;;;;7.27;5.63;;;2.80;99.90;;;;;;5044490;28;20508;-78
2020/12/25 05:32:31;;;;;;;7.03;5.40;;;2.70;99.90;;;;;;5041184;28;20444;-78
2020/12/25 05:34:57;;;;;;;6.13;5.40;;;2.70;99.90;;;;;;5040583;28;20942;-77
2020/12/25 05:37:36;;;;;;;6.80;5.50;;;2.80;99.90;;;;;;5043448;28;20987;-77
2020/12/25 05:40:07;;;;;;;7.33;5.70;;;2.70;99.90;;;;;;5043837;28;20425;-77
2020/12/25 05:42:50;;;;;;;6.30;5.67;;;2.70;99.90;;;;;;5041127;28;20478;-77
2020/12/25 05:45:20;;;;;;;9.23;5.20;;;2.70;99.90;;;;;;5037182;28;20429;-77
2020/12/25 05:47:47;;;;;;;8.80;5.43;;;2.70;99.90;;;;;;5042888;28;20816;-78
2020/12/25 05:50:19;;;;;;;6.63;5.63;;;2.70;99.90;;;;;;5040976;28;20420;-77
2020/12/25 05:52:46;;;;;;;9.20;5.43;;;2.70;99.90;;;;;;5036092;28;20449;-77
2020/12/25 05:55:16;;;;;;;7.10;5.57;;;2.80;99.90;;;;;;5044894;28;20941;-77
2020/12/25 05:57:49;;;;;;;9.13;6.93;;;2.80;99.90;;;;;;5043938;28;20433;-77
2020/12/25 06:00:17;;;;;;;7.10;6.07;;;2.80;99.90;;;;;;5037930;28;20395;-77
2020/12/25 06:02:48;;;;;;;8.80;5.80;;;2.80;99.90;;;;;;5037190;28;20458;-77
2020/12/25 06:05:15;;;;;;;5.93;5.20;;;2.80;99.90;;;;;;5035024;28;20433;-77
2020/12/25 06:07:52;;;;;;;8.47;6.17;;;2.80;99.90;;;;;;5043029;28;20514;-77
2020/12/25 06:10:24;;;;;;;10.20;6.00;;;2.80;99.90;;;;;;5039129;28;20416;-77
2020/12/25 06:12:50;;;;;;;8.63;6.80;;;2.80;99.90;;;;;;5037892;28;20596;-77
2020/12/25 06:15:23;;;;;;;5.93;5.30;;;2.80;99.90;;;;;;5041229;28;20785;-76
2020/12/25 06:18:05;;;;;;;7.80;5.70;;;2.80;99.90;;;;;;5038295;28;20425;-77
2020/12/25 06:20:37;;;;;;;9.10;6.97;;;2.90;99.90;;;;;;5040479;28;21006;-77
2020/12/25 06:23:04;;;;;;;8.13;6.53;;;2.80;99.90;;;;;;5042216;28;20432;-77
2020/12/25 06:25:30;;;;;;;9.27;6.57;;;2.70;99.90;;;;;;5042938;28;20516;-77
2020/12/25 06:28:01;;;;;;;8.00;6.67;;;2.70;99.90;;;;;;5041992;28;20466;-78
2020/12/25 06:30:29;;;;;;;10.80;6.03;;;2.70;99.90;;;;;;5040115;28;20426;-76
2020/12/25 06:32:56;;;;;;;10.80;7.10;;;2.70;99.90;;;;;;5041961;28;20518;-77
2020/12/25 06:35:29;;;;;;;10.00;6.60;;;2.70;99.90;;;;;;5042995;28;20432;-77
2020/12/25 06:37:55;;;;;;;8.57;6.60;;;2.60;99.90;;;;;;5042711;28;20433;-77
2020/12/25 06:40:25;;;;;;;8.80;7.50;;;2.50;99.90;;;;;;5062107;28;20430;-77
2020/12/25 06:42:53;;;;;;;7.60;6.50;;;2.50;99.90;;;;;;5042223;28;20459;-77
2020/12/25 06:45:26;;;;;;;10.73;7.60;;;2.50;99.90;;;;;;5038932;28;20432;-78
2020/12/25 06:47:51;;;;;;;12.83;7.67;;;2.50;99.90;;;;;;5040035;28;20822;-78
2020/12/25 06:50:17;;;;;;;14.60;7.70;;;2.50;99.90;;;;;;5039696;28;20426;-78
2020/12/25 06:52:57;;;;;;;13.20;7.10;;;2.40;99.90;;;;;;5042611;28;20205;-79
2020/12/25 06:55:23;;;;;;;8.67;6.30;;;2.40;99.90;;;;;;5037073;28;20198;-78
2020/12/25 06:57:55;;;;;;;11.90;7.70;;;2.30;99.90;;;;;;5042229;28;20991;-78
2020/12/25 07:00:22;;;;;;;10.53;7.37;;;2.20;99.90;;;;;;5039475;28;20437;-78
2020/12/25 07:02:48;;;;;;;12.37;6.87;;;2.20;99.90;;;;;;5043396;28;20440;-78
2020/12/25 07:05:14;;;;;;;11.10;6.77;;;2.20;99.90;;;;;;5034954;28;20482;-78
2020/12/25 07:07:40;;;;;;;8.30;6.47;;;2.20;99.90;;;;;;5043325;28;20203;-78
2020/12/25 07:10:11;;;;;;;11.30;7.43;;;2.10;99.90;;;;;;5039715;28;20421;-79
2020/12/25 07:12:37;;;;;;;7.70;5.83;;;2.10;99.90;;;;;;5041275;28;20297;-78
2020/12/25 07:15:04;;;;;;;11.00;6.43;;;2.10;99.90;;;;;;5039225;28;20531;-77
2020/12/25 07:17:30;;;;;;;9.10;6.07;;;2.10;99.90;;;;;;5041712;28;20393;-75
2020/12/25 07:19:56;;;;;;;8.10;6.07;;;2.10;99.90;;;;;;5039123;28;20969;-74
2020/12/25 07:22:22;;;;;;;9.33;6.97;;;2.20;99.90;;;;;;5042397;28;20202;-74
2020/12/25 07:24:48;;;;;;;9.73;6.03;;;2.20;99.90;;;;;;5039871;28;20267;-74
2020/12/25 07:27:14;;;;;;;7.30;6.10;;;2.20;99.90;;;;;;5035667;28;20522;-75
2020/12/25 07:29:41;;;;;;;6.20;5.00;;;2.30;99.90;;;;;;5041099;28;20230;-74
2020/12/25 07:32:09;;;;;;;8.27;6.03;;;2.30;99.90;;;;;;5038811;28;20441;-75
2020/12/25 07:34:34;;;;;;;5.57;5.07;;;2.20;99.90;;;;;;5040679;28;20406;-74
2020/12/25 07:37:00;;;;;;;7.67;6.00;;;2.20;99.90;;;;;;5042346;28;20424;-74
2020/12/25 07:39:27;;;;;;;6.37;5.60;;;2.20;99.90;;;;;;5034754;28;20181;-75
2020/12/25 07:41:53;;;;;;;7.77;5.80;;;2.20;99.90;;;;;;5035957;28;20623;-75
2020/12/25 07:44:19;;;;;;;6.97;5.77;;;2.20;99.90;;;;;;5038026;28;20402;-74
2020/12/25 07:46:45;;;;;;;6.60;5.90;;;2.20;99.90;;;;;;5031086;28;20200;-75
2020/12/25 07:49:11;;;;;;;6.57;4.97;;;2.10;99.90;;;;;;5031961;28;20532;-74
2020/12/25 07:51:37;;;;;;;9.53;6.20;;;2.20;99.90;;;;;;5035368;28;20435;-74
2020/12/25 07:54:04;;;;;;;5.53;5.03;;;2.20;99.90;;;;;;5035049;28;20215;-76
2020/12/25 07:56:31;;;;;;;5.63;4.83;;;2.20;99.90;;;;;;5037414;28;20183;-74
2020/12/25 07:58:58;;;;;;;12.20;5.27;;;2.30;99.90;;;;;;5034786;28;20441;-75
2020/12/25 08:01:26;;;;;;;6.90;5.80;;;2.20;99.90;;;;;;5031950;28;20446;-75
2020/12/25 08:03:52;;;;;;;9.20;5.43;;;2.20;99.90;;;;;;5029694;28;20406;-74
2020/12/25 08:06:20;;;;;;;8.40;6.40;;;2.20;99.90;;;;;;5040728;28;20442;-74
2020/12/25 08:08:48;;;;;;;6.10;4.63;;;2.30;99.90;;;;;;5035635;28;20811;-74
2020/12/25 08:11:16;;;;;;;7.13;6.10;;;2.20;99.90;;;;;;5039956;28;20431;-74
2020/12/25 08:13:42;;;;;;;7.53;5.90;;;2.20;99.90;;;;;;5041363;28;20432;-74
2020/12/25 08:16:09;;;;;;;8.20;6.73;;;2.20;99.90;;;;;;5038133;28;20819;-76
2020/12/25 08:18:35;;;;;;;9.43;7.23;;;2.30;99.90;;;;;;5040050;28;20805;-74
2020/12/25 08:21:01;;;;;;;9.43;6.77;;;2.30;99.90;;;;;;5038648;28;20772;-74
2020/12/25 08:23:31;;;;;;;9.50;6.70;;;2.40;99.90;;;;;;5042314;28;20426;-74
2020/12/25 08:25:57;;;;;;;10.23;7.50;;;2.40;99.90;;;;;;5038925;28;20451;-75
2020/12/25 08:28:22;;;;;;;10.70;8.60;;;2.50;99.90;;;;;;5039336;28;20458;-75
2020/12/25 08:30:49;;;;;;;13.50;8.83;;;2.50;99.90;;;;;;5038044;28;20189;-74
2020/12/25 08:33:25;;;;;;;14.43;9.60;;;2.50;99.90;;;;;;5041108;28;20666;-74
2020/12/25 08:35:51;;;;;;;13.30;9.17;;;2.50;99.90;;;;;;5034776;28;20430;-74
2020/12/25 08:38:16;;;;;;;14.70;10.10;;;2.60;99.90;;;;;;5038730;28;20449;-74
2020/12/25 08:40:43;;;;;;;17.20;11.33;;;2.60;99.90;;;;;;5041882;28;20515;-74
2020/12/25 08:43:12;;;;;;;15.60;10.03;;;2.60;99.90;;;;;;5040972;28;20234;-74
2020/12/25 08:45:39;;;;;;;20.20;9.60;;;2.60;99.90;;;;;;5038943;28;20410;-74
2020/12/25 08:48:10;;;;;;;13.30;9.17;;;2.70;99.90;;;;;;5039580;28;20545;-73
2020/12/25 08:50:37;;;;;;;15.30;9.90;;;2.70;99.90;;;;;;5040783;28;20961;-76
2020/12/25 08:53:14;;;;;;;18.13;10.33;;;2.80;99.90;;;;;;5039670;28;20945;-74
2020/12/25 08:55:40;;;;;;;20.90;12.80;;;2.80;99.90;;;;;;5040441;28;20454;-74
2020/12/25 08:58:05;;;;;;;14.03;10.23;;;2.90;99.90;;;;;;5040124;28;20454;-74
2020/12/25 09:00:31;;;;;;;14.60;9.37;;;3.00;99.90;;;;;;5036991;28;20239;-74
2020/12/25 09:02:58;;;;;;;15.37;10.67;;;3.00;99.90;;;;;;5040497;28;20236;-73
2020/12/25 09:05:23;;;;;;;28.90;13.90;;;3.00;99.90;;;;;;5038337;28;20510;-74
2020/12/25 09:07:49;;;;;;;21.73;13.03;;;3.10;99.90;;;;;;5036906;28;20624;-73
2020/12/25 09:10:15;;;;;;;18.33;9.87;;;3.10;99.90;;;;;;5034238;28;20262;-74
2020/12/25 09:12:40;;;;;;;18.30;12.73;;;3.20;99.90;;;;;;5034931;28;20821;-74
2020/12/25 09:15:06;;;;;;;14.30;10.30;;;3.20;99.90;;;;;;5041181;28;20644;-74
2020/12/25 09:17:32;;;;;;;18.47;11.37;;;3.20;99.90;;;;;;5039364;28;20210;-74
2020/12/25 09:19:57;;;;;;;18.20;12.40;;;3.20;99.90;;;;;;5038757;28;20186;-74
2020/12/25 09:22:22;;;;;;;16.13;10.93;;;3.20;99.90;;;;;;5028422;28;20775;-74
2020/12/25 09:24:48;;;;;;;14.70;9.83;;;3.30;99.90;;;;;;5032918;28;20182;-76
2020/12/25 09:27:13;;;;;;;16.30;10.20;;;3.30;99.90;;;;;;5032081;28;20193;-74
2020/12/25 09:29:39;;;;;;;17.67;11.73;;;3.30;99.90;;;;;;5045054;28;20182;-74
2020/12/25 09:32:04;;;;;;;16.47;9.93;;;3.20;99.90;;;;;;5038075;28;20213;-75
2020/12/25 09:34:30;;;;;;;12.70;9.63;;;3.30;99.90;;;;;;5040236;28;20200;-74
2020/12/25 09:36:55;;;;;;;14.20;10.73;;;3.30;99.90;;;;;;5041820;28;20222;-74
2020/12/25 09:39:21;;;;;;;13.77;10.07;;;3.40;99.90;;;;;;5038105;28;20191;-75
2020/12/25 09:41:48;;;;;;;18.50;10.37;;;3.40;99.90;;;;;;5041784;28;20285;-74
2020/12/25 09:44:14;;;;;;;15.13;10.10;;;3.40;99.90;;;;;;5037266;28;20186;-76
2020/12/25 09:46:43;;;;;;;15.87;10.20;;;3.50;99.90;;;;;;5043034;28;20433;-74
2020/12/25 09:49:08;;;;;;;19.40;11.43;;;3.50;99.90;;;;;;5041667;28;20653;-75
2020/12/25 09:51:34;;;;;;;14.60;10.17;;;3.60;99.90;;;;;;5040813;28;20464;-75
2020/12/25 09:54:00;;;;;;;13.80;9.60;;;3.70;99.90;;;;;;5041313;28;20182;-74
2020/12/25 09:56:25;;;;;;;14.37;8.40;;;3.70;99.90;;;;;;5041777;28;20207;-74
2020/12/25 09:58:50;;;;;;;11.60;7.73;;;3.80;99.90;;;;;;5043323;28;20179;-75
2020/12/25 10:01:18;;;;;;;11.23;7.60;;;3.90;99.90;;;;;;5041759;28;20211;-74
2020/12/25 10:03:44;;;;;;;12.93;8.30;;;4.00;99.90;;;;;;5037422;28;20266;-74
2020/12/25 10:06:09;;;;;;;11.57;7.87;;;4.10;99.90;;;;;;5042112;28;20967;-75
2020/12/25 10:08:35;;;;;;;9.40;7.43;;;4.10;99.90;;;;;;5040216;28;20186;-76
2020/12/25 10:11:00;;;;;;;8.20;6.07;;;4.10;99.90;;;;;;5041025;28;20251;-74
2020/12/25 10:13:26;;;;;;;9.03;6.10;;;4.20;99.90;;;;;;5041886;28;20235;-74
2020/12/25 10:15:52;;;;;;;7.33;6.30;;;4.20;99.90;;;;;;5043624;28;20582;-74
2020/12/25 10:18:18;;;;;;;6.23;5.63;;;4.20;99.90;;;;;;5041529;28;20207;-75
2020/12/25 10:20:44;;;;;;;7.83;6.47;;;4.20;99.90;;;;;;5038558;28;20435;-75
2020/12/25 10:23:09;;;;;;;8.93;6.83;;;4.10;99.90;;;;;;5038746;28;20223;-74
2020/12/25 10:25:35;;;;;;;9.67;6.10;;;4.10;99.90;;;;;;5043227;28;20178;-75
2020/12/25 10:28:00;;;;;;;10.37;7.40;;;4.10;99.90;;;;;;5042759;28;20193;-74
2020/12/25 10:30:25;;;;;;;10.17;7.00;;;4.00;99.90;;;;;;5043082;28;20189;-74
2020/12/25 10:32:51;;;;;;;8.47;6.63;;;4.00;99.90;;;;;;5043188;28;20224;-74
2020/12/25 10:35:17;;;;;;;9.10;6.60;;;4.10;99.90;;;;;;5043788;28;20169;-75
2020/12/25 10:37:42;;;;;;;7.53;6.43;;;4.10;99.90;;;;;;5039910;28;20211;-74
2020/12/25 10:40:08;;;;;;;11.10;6.43;;;4.10;99.90;;;;;;5040650;28;20280;-73
2020/12/25 10:42:33;;;;;;;8.63;6.60;;;4.10;99.90;;;;;;5039203;28;20682;-73
2020/12/25 10:44:59;;;;;;;10.53;7.37;;;4.10;99.90;;;;;;5040365;28;20192;-74
2020/12/25 10:47:24;;;;;;;7.80;6.30;;;4.20;99.90;;;;;;5040296;28;20595;-74
2020/12/25 10:49:50;;;;;;;9.43;7.27;;;4.10;99.90;;;;;;5043462;28;20201;-75
2020/12/25 10:52:15;;;;;;;8.13;6.57;;;4.10;99.90;;;;;;5040021;28;20232;-75
2020/12/25 10:54:41;;;;;;;6.67;5.90;;;4.00;99.90;;;;;;5039818;28;20186;-74
2020/12/25 10:57:06;;;;;;;7.70;6.00;;;4.00;99.90;;;;;;5038314;28;20202;-75
2020/12/25 10:59:32;;;;;;;9.93;5.37;;;4.00;99.90;;;;;;5037919;28;20210;-73
2020/12/25 11:01:57;;;;;;;7.43;6.13;;;4.00;99.90;;;;;;5039278;28;20207;-75
2020/12/25 11:04:22;;;;;;;8.70;5.50;;;4.00;99.90;;;;;;5040568;28;20593;-82
2020/12/25 11:06:48;;;;;;;6.73;5.20;;;4.00;99.90;;;;;;5039938;28;20190;-78
2020/12/25 11:09:14;;;;;;;6.77;5.03;;;4.00;99.90;;;;;;5036755;28;20212;-77
2020/12/25 11:11:40;;;;;;;8.07;5.43;;;3.90;99.90;;;;;;5039121;28;20209;-75
2020/12/25 11:14:06;;;;;;;7.27;5.20;;;4.00;99.90;;;;;;5041134;28;20194;-76
2020/12/25 11:16:34;;;;;;;4.67;4.20;;;4.10;99.90;;;;;;5056686;28;20683;-78
2020/12/25 11:19:01;;;;;;;9.83;5.90;;;4.20;99.90;;;;;;5042310;28;20420;-78
2020/12/25 11:21:31;;;;;;;8.33;4.53;;;4.10;99.90;;;;;;5040242;28;20486;-75
2020/12/25 11:23:58;;;;;;;4.87;4.37;;;4.10;99.90;;;;;;5041357;28;20444;-76
2020/12/25 11:26:36;;;;;;;5.27;4.60;;;4.10;99.90;;;;;;5038999;28;20926;-75
2020/12/25 11:29:04;;;;;;;11.03;4.60;;;4.10;99.90;;;;;;5042050;28;20402;-75
2020/12/25 11:31:30;;;;;;;5.70;5.20;;;4.10;99.90;;;;;;5041107;28;20825;-75
2020/12/25 11:33:56;;;;;;;9.20;5.33;;;4.20;99.90;;;;;;5038783;28;20778;-75
2020/12/25 11:36:24;;;;;;;5.73;5.00;;;4.20;99.90;;;;;;5042657;28;20425;-76
2020/12/25 11:38:51;;;;;;;12.60;5.50;;;4.30;99.90;;;;;;5042551;28;20206;-75
2020/12/25 11:41:18;;;;;;;6.23;4.00;;;4.10;99.90;;;;;;5043043;28;20416;-76
2020/12/25 11:43:45;;;;;;;10.77;5.97;;;4.20;99.90;;;;;;5031940;28;20508;-76
2020/12/25 11:46:11;;;;;;;10.30;5.93;;;4.10;99.90;;;;;;5033915;28;20449;-75
2020/12/25 11:48:37;;;;;;;7.83;4.90;;;4.20;99.90;;;;;;5037388;28;20429;-76
2020/12/25 11:51:04;;;;;;;10.80;6.07;;;4.20;99.90;;;;;;5039527;28;20421;-78
2020/12/25 11:53:30;;;;;;;5.23;3.83;;;4.20;99.90;;;;;;5041306;28;20425;-77
2020/12/25 11:55:56;;;;;;;5.07;4.57;;;4.10;99.90;;;;;;5039620;28;20435;-78
2020/12/25 11:58:21;;;;;;;7.33;4.90;;;4.10;99.90;;;;;;5035567;28;20214;-76
2020/12/25 12:00:47;;;;;;;7.60;4.00;;;4.00;99.90;;;;;;5039434;28;20553;-76
2020/12/25 12:03:12;;;;;;;6.40;4.50;;;3.90;99.90;;;;;;5039927;28;20195;-77
2020/12/25 12:05:47;;;;;;;4.57;3.80;;;3.90;99.90;;;;;;5034918;28;20191;-75
2020/12/25 12:08:12;;;;;;;5.07;4.57;;;3.90;99.90;;;;;;5032878;28;20192;-77
2020/12/25 12:10:39;;;;;;;4.40;4.00;;;3.90;99.90;;;;;;5033181;28;20852;-76
2020/12/25 12:13:05;;;;;;;4.77;4.30;;;3.80;99.90;;;;;;5037956;28;20250;-75
2020/12/25 12:15:38;;;;;;;4.03;3.73;;;3.90;99.90;;;;;;5032401;28;20434;-75
2020/12/25 12:18:04;;;;;;;4.83;4.23;;;3.90;99.90;;;;;;5036436;28;21012;-76
2020/12/25 12:20:31;;;;;;;5.13;4.67;;;3.90;99.90;;;;;;5054915;28;20841;-76
2020/12/25 12:22:56;;;;;;;7.20;4.83;;;3.80;99.90;;;;;;5033896;28;20903;-76
2020/12/25 12:25:22;;;;;;;5.97;3.77;;;3.90;99.90;;;;;;5032862;28;20438;-76
2020/12/25 12:27:47;;;;;;;3.90;3.57;;;3.80;99.90;;;;;;5033097;28;21266;-77
2020/12/25 12:30:13;;;;;;;7.70;4.17;;;3.70;99.90;;;;;;5028413;28;20187;-75
2020/12/25 12:32:38;;;;;;;4.90;3.40;;;3.70;99.90;;;;;;5027010;28;20240;-75
2020/12/25 12:35:04;;;;;;;4.43;4.03;;;3.70;99.90;;;;;;5028457;28;20229;-75
2020/12/25 12:37:29;;;;;;;6.07;5.33;;;3.70;99.90;;;;;;5025349;28;20290;-75
2020/12/25 12:39:55;;;;;;;5.70;4.10;;;3.70;99.90;;;;;;5025337;28;20187;-76
2020/12/25 12:42:22;;;;;;;4.33;3.30;;;3.70;99.90;;;;;;5025644;28;20208;-75
2020/12/25 12:44:48;;;;;;;3.40;3.20;;;3.60;99.90;;;;;;5024819;28;20709;-75
2020/12/25 12:47:14;;;;;;;4.30;3.80;;;3.70;99.90;;;;;;5028045;28;20440;-75
2020/12/25 12:49:39;;;;;;;4.30;3.90;;;3.70;99.90;;;;;;5030316;28;20939;-75